createdAt,value
2024-01-24T00:02:01.403Z,72.92
2024-01-24T00:04:27.665Z,75.05
2024-01-24T00:06:53.875Z,72.39
2024-01-24T00:09:20.075Z,70.69
2024-01-24T00:11:46.286Z,69.99
2024-01-24T00:14:12.528Z,70.02
2024-01-24T00:16:38.688Z,70.41
2024-01-24T00:19:04.966Z,71.28
2024-01-24T00:21:31.222Z,72.22
2024-01-24T00:23:57.399Z,76.78
2024-01-24T00:26:23.567Z,77.72
2024-01-24T00:28:49.711Z,73.22
2024-01-24T00:31:15.902Z,72.43
2024-01-24T00:33:42.110Z,72.14
2024-01-24T00:36:08.389Z,69.88
2024-01-24T00:38:34.570Z,70.76
2024-01-24T00:41:00.733Z,72.41
2024-01-24T00:43:26.893Z,72.58
2024-01-24T00:45:53.059Z,71.72
2024-01-24T00:48:19.283Z,69.61
2024-01-24T00:50:45.541Z,69.41
2024-01-24T00:53:11.703Z,68.50
2024-01-24T00:55:37.846Z,69.30
2024-01-24T00:58:04.028Z,70.14
2024-01-24T01:00:30.258Z,69.57
2024-01-24T01:02:56.498Z,70.76
2024-01-24T01:05:22.725Z,71.47
2024-01-24T01:07:48.892Z,71.78
2024-01-24T01:10:15.059Z,71.62
2024-01-24T01:12:41.231Z,71.17
2024-01-24T01:15:07.471Z,71.53
2024-01-24T01:17:33.648Z,71.06
2024-01-24T01:19:59.815Z,70.52
2024-01-24T01:22:26.088Z,71.50
2024-01-24T01:24:52.320Z,71.06
2024-01-24T01:27:18.549Z,70.60
2024-01-24T01:29:45.789Z,73.86
2024-01-24T01:32:11.952Z,73.38
2024-01-24T01:34:38.345Z,73.49
2024-01-24T01:37:04.688Z,71.63
2024-01-24T01:39:30.976Z,72.20
2024-01-24T01:41:57.177Z,70.35
2024-01-24T01:44:23.340Z,71.81
2024-01-24T01:46:49.517Z,71.66
2024-01-24T01:49:15.749Z,71.82
2024-01-24T01:51:41.991Z,71.36
2024-01-24T01:54:08.193Z,73.09
2024-01-24T01:56:34.363Z,71.45
2024-01-24T01:59:00.522Z,70.74
2024-01-24T02:01:26.693Z,70.94
2024-01-24T02:03:52.941Z,74.51
2024-01-24T02:06:19.318Z,74.76
2024-01-24T02:08:45.650Z,71.77
2024-01-24T02:11:11.864Z,70.59
2024-01-24T02:13:38.032Z,71.84
2024-01-24T02:16:04.181Z,71.38
2024-01-24T02:18:30.353Z,71.14
2024-01-24T02:20:56.529Z,72.16
2024-01-24T02:23:22.697Z,71.72
2024-01-24T02:25:48.851Z,70.04
2024-01-24T02:28:15.033Z,70.13
2024-01-24T02:30:41.231Z,69.73
2024-01-24T02:33:07.471Z,70.58
2024-01-24T02:35:33.728Z,70.05
2024-01-24T02:37:59.900Z,70.86
2024-01-24T02:40:26.082Z,70.44
2024-01-24T02:42:52.333Z,71.78
2024-01-24T02:45:18.583Z,72.38
2024-01-24T02:47:44.789Z,72.99
2024-01-24T02:50:13.289Z,71.56
2024-01-24T02:52:40.990Z,72.10
2024-01-24T02:55:07.285Z,71.89
2024-01-24T02:57:33.577Z,71.50
2024-01-24T02:59:59.743Z,73.46
2024-01-24T03:02:26.001Z,74.93
2024-01-24T03:04:52.206Z,74.23
2024-01-24T03:07:18.558Z,73.33
2024-01-24T03:09:44.803Z,71.53
2024-01-24T03:12:11.082Z,71.74
2024-01-24T03:14:37.302Z,72.22
2024-01-24T03:17:03.466Z,70.36
2024-01-24T03:19:29.752Z,72.48
2024-01-24T03:21:56.097Z,73.50
2024-01-24T03:24:22.353Z,73.71
2024-01-24T03:26:48.500Z,72.35
2024-01-24T03:29:14.653Z,70.38
2024-01-24T03:31:40.814Z,70.97
2024-01-24T03:34:07.107Z,72.54
2024-01-24T03:36:33.383Z,72.24
2024-01-24T03:38:59.585Z,70.56
2024-01-24T03:41:25.751Z,71.67
2024-01-24T03:43:51.899Z,71.10
2024-01-24T03:46:18.053Z,71.44
2024-01-24T03:48:44.252Z,70.34
2024-01-24T03:51:10.431Z,70.88
2024-01-24T03:53:36.582Z,71.09
2024-01-24T03:56:02.757Z,69.65
2024-01-24T03:58:28.916Z,70.55
2024-01-24T04:00:55.123Z,68.71
2024-01-24T04:03:21.366Z,69.35
2024-01-24T04:05:47.649Z,68.86
2024-01-24T04:08:14.035Z,67.49
2024-01-24T04:10:40.190Z,67.82
2024-01-24T04:13:06.336Z,66.96
2024-01-24T04:15:32.501Z,67.94
2024-01-24T04:17:58.722Z,70.20
2024-01-24T04:20:24.913Z,68.17
2024-01-24T04:22:51.102Z,69.13
2024-01-24T04:25:17.249Z,71.25
2024-01-24T04:27:43.492Z,69.87
2024-01-24T04:30:09.797Z,70.17
2024-01-24T04:32:36.097Z,69.82
2024-01-24T04:35:02.378Z,71.38
2024-01-24T04:37:28.558Z,71.58
2024-01-24T04:39:54.787Z,70.92
2024-01-24T04:42:21.045Z,69.49
2024-01-24T04:44:47.255Z,71.37
2024-01-24T04:47:13.449Z,70.12
2024-01-24T04:49:44.519Z,68.00
2024-01-24T04:52:12.115Z,69.67
2024-01-24T04:54:38.416Z,68.71
2024-01-24T04:57:04.681Z,66.80
2024-01-24T04:59:32.091Z,66.77
2024-01-24T05:02:00.779Z,69.03
2024-01-24T05:04:26.951Z,72.01
2024-01-24T05:06:53.138Z,69.47
2024-01-24T05:09:19.328Z,67.96
2024-01-24T05:11:45.490Z,69.16
2024-01-24T05:14:11.668Z,71.29
2024-01-24T05:16:37.843Z,69.85
2024-01-24T05:19:04.131Z,70.55
2024-01-24T05:21:30.408Z,72.18
2024-01-24T05:23:56.579Z,71.62
2024-01-24T05:26:22.730Z,70.88
2024-01-24T05:28:48.892Z,70.02
2024-01-24T05:31:15.359Z,69.21
2024-01-24T05:33:41.542Z,70.02
2024-01-24T05:36:07.782Z,68.85
2024-01-24T05:38:33.939Z,67.53
2024-01-24T05:41:00.090Z,68.74
2024-01-24T05:43:26.241Z,68.32
2024-01-24T05:45:52.500Z,66.26
2024-01-24T05:48:18.843Z,66.90
2024-01-24T05:50:45.101Z,68.68
2024-01-24T05:53:11.253Z,67.36
2024-01-24T05:55:37.439Z,65.66
2024-01-24T05:58:03.658Z,64.41
2024-01-24T06:00:29.950Z,65.78
2024-01-24T06:02:56.177Z,64.74
2024-01-24T06:05:22.468Z,65.56
2024-01-24T06:07:48.754Z,65.35
2024-01-24T06:10:14.911Z,63.97
2024-01-24T06:12:41.116Z,64.50
2024-01-24T06:15:07.335Z,64.30
2024-01-24T06:17:35.417Z,65.58
2024-01-24T06:20:01.822Z,66.04
2024-01-24T06:22:27.984Z,66.36
2024-01-24T06:24:54.161Z,64.36
2024-01-24T06:27:20.438Z,65.85
2024-01-24T06:30:16.925Z,65.73
2024-01-24T06:32:32.803Z,66.35
2024-01-24T06:34:58.968Z,65.64
2024-01-24T06:37:25.129Z,66.08
2024-01-24T06:39:51.361Z,64.28
2024-01-24T06:42:17.685Z,65.24
2024-01-24T06:44:45.144Z,65.64
2024-01-24T06:47:12.053Z,65.89
2024-01-24T06:49:38.320Z,66.99
2024-01-24T06:52:04.564Z,64.89
2024-01-24T06:54:30.782Z,63.87
2024-01-24T06:56:56.945Z,64.68
2024-01-24T06:59:23.125Z,64.58
2024-01-24T07:01:49.292Z,65.49
2024-01-24T07:04:15.618Z,65.51
2024-01-24T07:06:41.877Z,64.71
2024-01-24T07:09:08.080Z,64.81
2024-01-24T07:11:34.247Z,65.75
2024-01-24T07:14:00.428Z,67.95
2024-01-24T07:16:26.593Z,67.11
2024-01-24T07:18:52.852Z,66.81
2024-01-24T07:21:19.163Z,67.17
2024-01-24T07:23:45.325Z,66.34
2024-01-24T07:26:11.477Z,64.23
2024-01-24T07:28:37.663Z,63.14
2024-01-24T07:31:03.941Z,63.83
2024-01-24T07:33:30.284Z,62.30
2024-01-24T07:35:56.502Z,62.25
2024-01-24T07:38:22.652Z,62.53
2024-01-24T07:40:48.814Z,65.10
2024-01-24T07:43:14.989Z,64.68
2024-01-24T07:45:41.364Z,63.12
2024-01-24T07:48:07.820Z,61.20
2024-01-24T07:50:34.011Z,61.34
2024-01-24T07:53:00.205Z,61.82
2024-01-24T07:55:32.687Z,62.43
2024-01-24T07:58:08.036Z,60.69
2024-01-24T08:00:34.535Z,59.58
2024-01-24T08:03:00.794Z,59.85
2024-01-24T08:05:27.157Z,58.96
2024-01-24T08:07:53.333Z,57.99
2024-01-24T08:10:19.520Z,57.52
2024-01-24T08:12:47.613Z,59.25
2024-01-24T08:15:13.896Z,62.65
2024-01-24T08:17:40.198Z,61.24
2024-01-24T08:20:06.462Z,59.86
2024-01-24T08:22:32.666Z,60.47
2024-01-24T08:24:58.965Z,58.01
2024-01-24T08:27:25.241Z,57.09
2024-01-24T08:29:51.466Z,56.61
2024-01-24T08:32:17.629Z,57.95
2024-01-24T08:34:43.871Z,56.45
2024-01-24T08:37:10.047Z,58.51
2024-01-24T08:39:36.312Z,59.85
2024-01-24T08:42:02.523Z,58.41
2024-01-24T08:44:28.690Z,56.90
2024-01-24T08:46:54.876Z,56.21
2024-01-24T08:49:21.220Z,57.45
2024-01-24T08:51:47.534Z,57.09
2024-01-24T08:54:14.004Z,57.46
2024-01-24T08:56:40.297Z,56.14
2024-01-24T08:59:06.564Z,56.12
2024-01-24T09:01:33.137Z,57.03
2024-01-24T09:03:59.694Z,57.24
2024-01-24T09:06:26.257Z,58.18
2024-01-24T09:08:52.522Z,60.05
2024-01-24T09:11:18.824Z,60.71
2024-01-24T09:13:45.016Z,58.86
2024-01-24T09:16:11.262Z,57.24
2024-01-24T09:18:37.761Z,56.59
2024-01-24T09:21:04.070Z,57.34
2024-01-24T09:23:30.366Z,57.61
2024-01-24T09:25:56.614Z,57.93
2024-01-24T09:28:22.873Z,56.70
2024-01-24T09:30:49.069Z,56.04
2024-01-24T09:33:15.631Z,54.12
2024-01-24T09:35:41.994Z,53.05
2024-01-24T09:38:08.293Z,54.36
2024-01-24T09:40:34.451Z,53.08
2024-01-24T09:43:00.634Z,51.94
2024-01-24T09:45:26.896Z,50.66
2024-01-24T09:47:53.102Z,51.08
2024-01-24T09:50:19.282Z,51.88
2024-01-24T09:52:47.238Z,51.44
2024-01-24T09:55:14.302Z,51.67
2024-01-24T09:57:40.541Z,50.88
2024-01-24T10:00:06.735Z,50.34
2024-01-24T10:02:32.942Z,49.83
2024-01-24T10:04:59.189Z,50.47
2024-01-24T10:07:25.476Z,50.55
2024-01-24T10:09:51.703Z,50.53
2024-01-24T10:12:18.155Z,52.72
2024-01-24T10:14:44.341Z,54.28
2024-01-24T10:17:10.547Z,51.91
2024-01-24T10:19:36.868Z,51.66
2024-01-24T10:22:03.747Z,50.16
2024-01-24T10:24:30.949Z,50.31
2024-01-24T10:26:57.147Z,50.13
2024-01-24T10:29:23.682Z,49.59
2024-01-24T10:31:49.976Z,48.83
2024-01-24T10:34:16.895Z,49.02
2024-01-24T10:36:44.318Z,48.93
2024-01-24T10:39:11.034Z,48.77
2024-01-24T10:41:37.538Z,48.30
2024-01-24T10:44:03.773Z,47.97
2024-01-24T10:46:31.450Z,47.19
2024-01-24T10:48:57.692Z,46.70
2024-01-24T10:51:24.362Z,46.57
2024-01-24T10:53:50.701Z,46.86
2024-01-24T10:56:17.511Z,46.95
2024-01-24T10:58:43.716Z,47.02
2024-01-24T11:01:10.211Z,47.38
2024-01-24T11:03:36.529Z,48.57
2024-01-24T11:06:02.840Z,47.99
2024-01-24T11:08:36.443Z,46.84
2024-01-24T11:11:09.552Z,46.76
2024-01-24T11:13:35.733Z,45.98
2024-01-24T11:16:02.025Z,47.30
2024-01-24T11:18:28.408Z,46.33
2024-01-24T11:20:54.657Z,45.24
2024-01-24T11:23:20.846Z,44.46
2024-01-24T11:25:47.047Z,43.19
2024-01-24T11:28:13.281Z,42.06
2024-01-24T11:30:39.508Z,41.56
2024-01-24T11:33:06.116Z,41.95
2024-01-24T11:35:32.778Z,41.22
2024-01-24T11:38:08.578Z,41.25
2024-01-24T11:40:42.385Z,41.86
2024-01-24T11:43:08.693Z,42.46
2024-01-24T11:45:35.381Z,44.16
2024-01-24T11:48:01.840Z,44.09
2024-01-24T11:50:28.157Z,43.53
2024-01-24T11:52:54.328Z,42.26
2024-01-24T11:55:20.544Z,40.97
2024-01-24T11:57:46.751Z,42.34
2024-01-24T12:00:12.944Z,43.89
2024-01-24T12:02:39.265Z,44.56
2024-01-24T12:05:05.570Z,43.93
2024-01-24T12:07:31.873Z,44.10
2024-01-24T12:09:58.237Z,44.78
2024-01-24T12:12:24.530Z,44.66
2024-01-24T12:14:50.685Z,43.75
2024-01-24T12:17:18.014Z,44.45
2024-01-24T12:19:46.052Z,46.61
2024-01-24T12:22:12.772Z,46.19
2024-01-24T12:24:39.136Z,44.84
2024-01-24T12:27:05.401Z,45.01
2024-01-24T12:29:31.624Z,45.51
2024-01-24T12:31:57.894Z,44.55
2024-01-24T12:34:24.374Z,43.22
2024-01-24T12:36:50.696Z,42.97
2024-01-24T12:39:17.792Z,43.57
2024-01-24T12:41:44.018Z,43.54
2024-01-24T12:44:10.943Z,43.11
2024-01-24T12:46:37.152Z,42.75
2024-01-24T12:49:03.436Z,43.75
2024-01-24T12:51:29.694Z,42.15
2024-01-24T12:53:56.264Z,42.36
2024-01-24T12:56:22.432Z,43.36
2024-01-24T12:58:48.606Z,43.31
2024-01-24T13:01:15.031Z,42.96
2024-01-24T13:03:41.413Z,41.41
2024-01-24T13:06:07.911Z,40.53
2024-01-24T13:08:34.344Z,41.15
2024-01-24T13:11:00.683Z,40.26
2024-01-24T13:13:26.882Z,40.60
2024-01-24T13:15:53.107Z,43.18
2024-01-24T13:18:19.465Z,42.71
2024-01-24T13:20:45.714Z,41.71
2024-01-24T13:23:11.896Z,43.93
2024-01-24T13:25:38.120Z,43.83
2024-01-24T13:28:04.638Z,44.14
2024-01-24T13:30:30.952Z,46.17
2024-01-24T13:32:57.259Z,45.91
2024-01-24T13:35:23.648Z,44.22
2024-01-24T13:37:49.908Z,43.58
2024-01-24T13:40:16.908Z,43.69
2024-01-24T13:42:43.428Z,43.63
2024-01-24T13:45:09.952Z,43.43
2024-01-24T13:47:36.204Z,42.42
2024-01-24T13:50:02.728Z,42.97
2024-01-24T13:52:29.343Z,43.27
2024-01-24T13:54:56.167Z,43.94
2024-01-24T13:57:22.604Z,43.75
2024-01-24T13:59:48.982Z,43.37
2024-01-24T14:02:16.210Z,43.90
2024-01-24T14:04:42.680Z,45.03
2024-01-24T14:07:09.041Z,45.18
2024-01-24T14:09:37.308Z,45.09
2024-01-24T14:12:03.839Z,44.26
2024-01-24T14:14:32.370Z,45.32
2024-01-24T14:16:59.211Z,46.04
2024-01-24T14:19:25.550Z,45.60
2024-01-24T14:21:51.847Z,46.25
2024-01-24T14:24:18.021Z,46.67
2024-01-24T14:26:44.208Z,45.88
2024-01-24T14:29:10.364Z,45.82
2024-01-24T14:31:37.196Z,45.95
2024-01-24T14:34:04.193Z,45.78
2024-01-24T14:36:30.514Z,45.96
2024-01-24T14:38:56.687Z,46.18
2024-01-24T14:41:22.852Z,47.18
2024-01-24T14:43:49.037Z,47.16
2024-01-24T14:46:15.206Z,46.92
2024-01-24T14:48:41.452Z,48.67
2024-01-24T14:51:07.659Z,48.75
2024-01-24T14:53:33.806Z,48.45
2024-01-24T14:56:00.367Z,47.50
2024-01-24T14:58:26.532Z,46.84
2024-01-24T15:00:52.775Z,46.57
2024-01-24T15:03:19.039Z,46.47
2024-01-24T15:05:45.557Z,46.97
2024-01-24T15:08:11.737Z,46.53
2024-01-24T15:10:37.900Z,46.75
2024-01-24T15:13:04.172Z,48.08
2024-01-24T15:15:30.490Z,48.16
2024-01-24T15:17:56.823Z,48.47
2024-01-24T15:20:23.064Z,48.91
2024-01-24T15:22:49.512Z,50.19
2024-01-24T15:25:17.420Z,49.72
2024-01-24T15:27:43.801Z,48.45
2024-01-24T15:30:10.033Z,49.85
2024-01-24T15:32:36.227Z,49.62
2024-01-24T15:35:02.506Z,49.61
2024-01-24T15:37:28.814Z,50.92
2024-01-24T15:39:55.123Z,50.21
2024-01-24T15:42:21.372Z,50.47
2024-01-24T15:44:47.599Z,50.98
2024-01-24T15:47:13.883Z,51.24
2024-01-24T15:49:40.103Z,51.35
2024-01-24T15:52:06.418Z,51.47
2024-01-24T15:54:32.730Z,52.37
2024-01-24T15:56:58.966Z,53.32
2024-01-24T15:59:25.244Z,55.52
2024-01-24T16:01:51.549Z,55.46
2024-01-24T16:04:17.990Z,53.79
2024-01-24T16:06:44.264Z,53.60
2024-01-24T16:09:10.660Z,53.26
2024-01-24T16:11:36.871Z,53.41
2024-01-24T16:14:03.037Z,55.48
2024-01-24T16:16:29.250Z,55.65
2024-01-24T16:18:55.492Z,54.98
2024-01-24T16:21:21.733Z,55.04
2024-01-24T16:23:47.898Z,54.96
2024-01-24T16:26:14.062Z,54.35
2024-01-24T16:28:40.232Z,56.43
2024-01-24T16:31:06.454Z,57.36
2024-01-24T16:33:32.839Z,57.32
2024-01-24T16:35:59.110Z,56.92
2024-01-24T16:38:25.297Z,59.13
2024-01-24T16:40:51.545Z,59.55
2024-01-24T16:43:17.726Z,58.67
2024-01-24T16:45:43.950Z,58.98
2024-01-24T16:48:10.269Z,61.41
2024-01-24T16:50:36.480Z,62.70
2024-01-24T16:53:02.669Z,62.51
2024-01-24T16:55:28.844Z,60.02
2024-01-24T16:57:55.056Z,59.92
2024-01-24T17:00:21.332Z,60.39
2024-01-24T17:02:51.714Z,58.96
2024-01-24T17:05:24.077Z,58.38
2024-01-24T17:07:50.267Z,58.14
2024-01-24T17:10:17.097Z,57.90
2024-01-24T17:12:43.401Z,57.03
2024-01-24T17:15:09.621Z,59.57
2024-01-24T17:17:35.838Z,60.58
2024-01-24T17:20:02.114Z,60.45
2024-01-24T17:22:36.083Z,61.56
2024-01-24T17:25:02.357Z,61.48
2024-01-24T17:27:28.651Z,61.85
2024-01-24T17:29:54.833Z,60.95
2024-01-24T17:32:21.015Z,60.59
2024-01-24T17:34:47.214Z,60.73
2024-01-24T17:37:13.527Z,59.51
2024-01-24T17:39:40.000Z,60.67
2024-01-24T17:42:06.229Z,60.37
2024-01-24T17:44:32.538Z,59.53
2024-01-24T17:46:58.773Z,59.25
2024-01-24T17:49:25.049Z,60.04
2024-01-24T17:51:51.282Z,59.67
2024-01-24T17:54:17.529Z,60.00
2024-01-24T17:56:43.728Z,61.03
2024-01-24T17:59:09.911Z,61.87
2024-01-24T18:01:36.400Z,61.69
2024-01-24T18:04:02.700Z,61.29
2024-01-24T18:06:28.921Z,61.05
2024-01-24T18:08:55.127Z,60.99
2024-01-24T18:11:21.306Z,60.81
2024-01-24T18:13:47.471Z,61.38
2024-01-24T18:16:13.647Z,61.94
2024-01-24T18:18:39.893Z,62.61
2024-01-24T18:21:07.942Z,62.89
2024-01-24T18:23:35.390Z,61.45
2024-01-24T18:26:01.552Z,60.46
2024-01-24T18:28:27.724Z,61.27
2024-01-24T18:30:53.959Z,62.35
2024-01-24T18:33:20.314Z,60.94
2024-01-24T18:35:46.605Z,61.04
2024-01-24T18:38:12.756Z,60.35
2024-01-24T18:40:38.932Z,60.56
2024-01-24T18:43:05.220Z,59.88
2024-01-24T18:45:31.656Z,61.59
2024-01-24T18:47:57.968Z,62.18
2024-01-24T18:50:24.383Z,61.82
2024-01-24T18:52:50.612Z,60.48
2024-01-24T18:55:16.966Z,60.80
2024-01-24T18:57:43.352Z,60.80
2024-01-24T19:00:09.735Z,60.69
2024-01-24T19:02:36.028Z,60.84
2024-01-24T19:05:02.488Z,61.10
2024-01-24T19:07:29.043Z,62.05
2024-01-24T19:09:55.267Z,61.81
2024-01-24T19:12:21.490Z,60.29
2024-01-24T19:14:47.657Z,61.35
2024-01-24T19:17:14.142Z,60.69
2024-01-24T19:19:40.514Z,60.89
2024-01-24T19:22:06.870Z,61.25
2024-01-24T19:24:33.098Z,61.55
2024-01-24T19:26:59.540Z,60.71
2024-01-24T19:29:25.910Z,61.09
2024-01-24T19:31:52.151Z,61.49
2024-01-24T19:34:18.759Z,60.53
2024-01-24T19:36:45.170Z,60.78
2024-01-24T19:39:11.410Z,60.89
2024-01-24T19:41:37.586Z,60.64
2024-01-24T19:44:03.841Z,60.45
2024-01-24T19:46:29.997Z,60.89
2024-01-24T19:48:56.257Z,60.99
2024-01-24T19:51:22.521Z,61.15
2024-01-24T19:53:48.693Z,60.73
2024-01-24T19:56:14.862Z,60.27
2024-01-24T19:58:41.030Z,59.80
2024-01-24T20:01:07.313Z,59.74
2024-01-24T20:03:33.684Z,60.86
2024-01-24T20:05:59.933Z,60.50
2024-01-24T20:08:26.097Z,60.40
2024-01-24T20:10:52.274Z,59.25
2024-01-24T20:13:18.421Z,58.43
2024-01-24T20:15:44.745Z,59.14
2024-01-24T20:18:10.961Z,58.99
2024-01-24T20:20:37.158Z,58.42
2024-01-24T20:23:03.362Z,58.34
2024-01-24T20:25:29.540Z,57.14
2024-01-24T20:27:55.985Z,58.77
2024-01-24T20:30:22.201Z,59.02
2024-01-24T20:32:57.219Z,59.47
2024-01-24T20:35:27.856Z,58.97
2024-01-24T20:37:54.044Z,58.77
2024-01-24T20:40:20.206Z,58.68
2024-01-24T20:42:46.427Z,59.50
2024-01-24T20:45:12.600Z,58.34
2024-01-24T20:47:38.792Z,57.49
2024-01-24T20:50:05.134Z,57.90
2024-01-24T20:52:31.364Z,57.48
2024-01-24T20:54:57.559Z,57.83
2024-01-24T20:57:23.762Z,61.96
2024-01-24T20:59:50.011Z,62.37
2024-01-24T21:02:16.549Z,59.98
2024-01-24T21:04:43.088Z,59.96
2024-01-24T21:07:09.427Z,59.79
2024-01-24T21:09:35.620Z,60.28
2024-01-24T21:12:01.888Z,60.18
2024-01-24T21:14:28.063Z,59.60
2024-01-24T21:16:54.226Z,58.86
2024-01-24T21:19:20.418Z,58.39
2024-01-24T21:21:46.896Z,59.34
2024-01-24T21:24:13.214Z,59.52
2024-01-24T21:26:39.392Z,59.32
2024-01-24T21:29:05.546Z,59.19
2024-01-24T21:31:31.720Z,59.20
2024-01-24T21:33:57.937Z,60.95
2024-01-24T21:36:24.180Z,61.05
2024-01-24T21:38:50.997Z,60.00
2024-01-24T21:41:17.365Z,60.40
2024-01-24T21:43:43.530Z,59.15
2024-01-24T21:46:09.727Z,60.01
2024-01-24T21:48:36.048Z,60.65
2024-01-24T21:51:02.246Z,60.12
2024-01-24T21:53:28.435Z,59.76
2024-01-24T21:55:54.612Z,60.48
2024-01-24T21:58:20.782Z,60.30
2024-01-24T22:00:47.104Z,60.88
2024-01-24T22:03:13.316Z,60.35
2024-01-24T22:05:39.493Z,59.45
2024-01-24T22:08:05.658Z,59.20
2024-01-24T22:10:32.379Z,58.71
2024-01-24T22:12:58.869Z,58.53
2024-01-24T22:15:25.097Z,58.52
2024-01-24T22:17:51.313Z,59.63
2024-01-24T22:20:17.533Z,58.79
2024-01-24T22:22:43.950Z,58.68
2024-01-24T22:25:10.269Z,59.18
2024-01-24T22:27:36.584Z,59.20
2024-01-24T22:30:02.763Z,58.38
2024-01-24T22:32:28.998Z,57.99
2024-01-24T22:34:55.249Z,58.24
2024-01-24T22:37:21.540Z,58.57
2024-01-24T22:39:47.860Z,58.33
2024-01-24T22:42:14.093Z,59.51
2024-01-24T22:44:40.259Z,60.81
2024-01-24T22:47:06.437Z,60.05
2024-01-24T22:49:32.729Z,60.12
2024-01-24T22:51:59.052Z,61.88
2024-01-24T22:54:25.320Z,63.02
2024-01-24T22:56:51.465Z,62.87
2024-01-24T22:59:17.640Z,61.92
2024-01-24T23:01:43.954Z,61.68
2024-01-24T23:04:10.282Z,62.35
2024-01-24T23:06:36.706Z,62.85
2024-01-24T23:09:02.914Z,62.33
2024-01-24T23:11:29.075Z,62.08
2024-01-24T23:13:55.262Z,62.49
2024-01-24T23:16:21.670Z,62.75
2024-01-24T23:18:47.993Z,62.41
2024-01-24T23:21:14.161Z,62.91
2024-01-24T23:23:40.325Z,62.74
2024-01-24T23:26:06.561Z,62.55
2024-01-24T23:28:32.841Z,62.65
2024-01-24T23:30:59.096Z,62.87
2024-01-24T23:33:25.416Z,61.94
2024-01-24T23:35:51.602Z,61.46
2024-01-24T23:38:17.791Z,61.58
2024-01-24T23:40:43.989Z,61.68
2024-01-24T23:43:10.191Z,62.08
2024-01-24T23:45:36.416Z,62.28
2024-01-24T23:48:02.851Z,61.86
2024-01-24T23:50:29.437Z,61.07
2024-01-24T23:52:55.726Z,61.08
2024-01-24T23:55:22.035Z,61.82
2024-01-24T23:57:48.348Z,61.30
